createdAt,value
2023-04-12T00:03:08.469Z,1.43
2023-04-12T00:06:14.429Z,1.46
2023-04-12T00:09:19.161Z,1.96
2023-04-12T00:12:24.047Z,1.61
2023-04-12T00:15:29.141Z,1.52
2023-04-12T00:18:33.638Z,1.63
2023-04-12T00:21:37.743Z,1.70
2023-04-12T00:24:42.543Z,1.57
2023-04-12T00:27:47.042Z,1.77
2023-04-12T00:30:51.672Z,1.95
2023-04-12T00:33:55.797Z,1.62
2023-04-12T00:37:02.477Z,1.51
2023-04-12T00:40:10.808Z,1.43
2023-04-12T00:43:19.596Z,1.58
2023-04-12T00:46:23.707Z,1.69
2023-04-12T00:49:31.539Z,1.53
2023-04-12T00:52:35.601Z,1.51
2023-04-12T00:55:40.110Z,1.84
2023-04-12T00:58:44.532Z,1.61
2023-04-12T01:01:48.416Z,1.73
2023-04-12T01:04:54.276Z,1.78
2023-04-12T01:08:16.802Z,1.75
2023-04-12T01:11:43.778Z,2.02
2023-04-12T01:15:04.126Z,1.91
2023-04-12T01:18:18.566Z,2.01
2023-04-12T01:21:54.426Z,1.93
2023-04-12T01:25:25.358Z,2.06
2023-04-12T01:28:35.798Z,1.53
2023-04-12T01:31:42.990Z,1.71
2023-04-12T01:34:47.520Z,2.20
2023-04-12T01:37:51.819Z,2.23
2023-04-12T01:40:56.749Z,2.21
2023-04-12T01:44:00.645Z,2.14
2023-04-12T01:47:05.223Z,1.98
2023-04-12T01:50:35.331Z,1.93
2023-04-12T01:54:00.358Z,2.05
2023-04-12T01:57:06.111Z,2.37
2023-04-12T02:00:12.408Z,2.74
2023-04-12T02:03:22.725Z,2.66
2023-04-12T02:06:28.625Z,1.96
2023-04-12T02:09:39.147Z,2.35
2023-04-12T02:12:43.718Z,2.33
2023-04-12T02:15:50.459Z,2.40
2023-04-12T02:18:55.020Z,3.11
2023-04-12T02:21:59.985Z,2.93
2023-04-12T02:25:09.944Z,2.64
2023-04-12T02:28:15.940Z,2.47
2023-04-12T02:31:21.101Z,2.82
2023-04-12T02:34:26.662Z,2.75
2023-04-12T02:37:39.405Z,2.77
2023-04-12T02:40:44.517Z,2.52
2023-04-12T02:43:52.647Z,2.48
2023-04-12T02:46:58.296Z,2.55
2023-04-12T02:50:03.216Z,2.75
2023-04-12T02:53:11.660Z,2.65
2023-04-12T02:56:19.757Z,2.93
2023-04-12T02:59:30.305Z,3.12
2023-04-12T03:02:59.724Z,3.62
2023-04-12T03:06:07.299Z,3.79
2023-04-12T03:09:14.073Z,4.03
2023-04-12T03:12:20.953Z,4.12
2023-04-12T03:15:44.750Z,4.19
2023-04-12T03:18:52.444Z,4.23
2023-04-12T03:22:00.897Z,4.35
2023-04-12T03:25:10.636Z,4.29
2023-04-12T03:28:19.271Z,4.34
2023-04-12T03:31:28.051Z,3.81
2023-04-12T03:34:35.927Z,4.23
2023-04-12T03:37:48.919Z,4.70
2023-04-12T03:40:54.495Z,4.59
2023-04-12T03:44:06.292Z,4.86
2023-04-12T03:47:12.250Z,4.93
2023-04-12T03:50:16.396Z,5.12
2023-04-12T03:53:25.743Z,4.98
2023-04-12T03:56:30.821Z,4.89
2023-04-12T03:59:40.117Z,5.35
2023-04-12T04:02:48.164Z,5.38
2023-04-12T04:05:54.312Z,5.14
2023-04-12T04:08:59.257Z,5.85
2023-04-12T04:12:04.430Z,6.08
2023-04-12T04:15:11.745Z,6.43
2023-04-12T04:18:16.721Z,6.71
2023-04-12T04:21:23.221Z,6.98
2023-04-12T04:24:32.715Z,6.92
2023-04-12T04:27:39.226Z,7.45
2023-04-12T04:30:46.989Z,7.12
2023-04-12T04:33:53.042Z,7.27
2023-04-12T04:37:04.470Z,7.50
2023-04-12T04:40:18.354Z,7.17
2023-04-12T04:43:23.322Z,7.56
2023-04-12T04:46:33.314Z,7.59
2023-04-12T04:49:38.770Z,7.68
2023-04-12T04:52:56.852Z,7.29
2023-04-12T04:56:02.309Z,6.97
2023-04-12T04:59:11.240Z,7.21
2023-04-12T05:02:17.556Z,7.39
2023-04-12T05:05:26.817Z,7.74
2023-04-12T05:08:45.628Z,7.81
2023-04-12T05:12:12.644Z,7.97
2023-04-12T05:15:23.154Z,8.03
2023-04-12T05:18:28.001Z,7.80
2023-04-12T05:21:33.877Z,7.78
2023-04-12T05:24:47.690Z,7.70
2023-04-12T05:27:53.403Z,7.31
2023-04-12T05:30:58.035Z,7.79
2023-04-12T05:34:14.421Z,7.76
2023-04-12T05:37:29.443Z,8.24
2023-04-12T05:40:33.481Z,7.90
2023-04-12T05:43:38.598Z,7.55
2023-04-12T05:46:45.306Z,7.61
2023-04-12T05:49:50.583Z,7.68
2023-04-12T05:52:56.404Z,7.48
2023-04-12T05:56:05.742Z,7.53
2023-04-12T05:59:12.545Z,7.79
2023-04-12T06:02:17.404Z,7.80
2023-04-12T06:05:22.227Z,7.84
2023-04-12T06:08:30.140Z,7.30
2023-04-12T06:11:34.772Z,7.34
2023-04-12T06:14:39.932Z,7.60
2023-04-12T06:17:46.175Z,7.59
2023-04-12T06:20:50.859Z,7.70
2023-04-12T06:23:55.881Z,7.70
2023-04-12T06:27:00.371Z,8.16
2023-04-12T06:30:05.451Z,8.14
2023-04-12T06:33:13.290Z,8.47
2023-04-12T06:36:18.244Z,8.11
2023-04-12T06:39:22.938Z,7.44
2023-04-12T06:42:27.377Z,7.32
2023-04-12T06:45:33.047Z,7.58
2023-04-12T06:48:38.692Z,7.75
2023-04-12T06:51:43.206Z,7.42
2023-04-12T06:54:47.885Z,7.39
2023-04-12T06:57:53.005Z,7.38
2023-04-12T07:01:09.289Z,7.12
2023-04-12T07:04:14.921Z,7.12
2023-04-12T07:07:22.404Z,7.42
2023-04-12T07:10:27.155Z,7.24
2023-04-12T07:13:32.092Z,7.20
2023-04-12T07:16:36.452Z,6.90
2023-04-12T07:19:42.896Z,6.76
2023-04-12T07:22:46.979Z,6.79
2023-04-12T07:25:51.270Z,6.69
2023-04-12T07:28:55.930Z,6.70
2023-04-12T07:32:03.142Z,6.69
2023-04-12T07:35:07.946Z,6.59
2023-04-12T07:38:12.777Z,6.60
2023-04-12T07:41:19.244Z,6.53
2023-04-12T07:44:23.693Z,6.44
2023-04-12T07:47:27.975Z,6.84
2023-04-12T07:50:32.588Z,6.77
2023-04-12T07:53:38.736Z,6.60
2023-04-12T07:56:43.153Z,6.49
2023-04-12T07:59:47.699Z,6.61
2023-04-12T08:02:52.459Z,6.90
2023-04-12T08:05:57.347Z,6.79
2023-04-12T08:09:02.082Z,6.75
2023-04-12T08:12:06.607Z,6.69
2023-04-12T08:15:11.153Z,6.62
2023-04-12T08:18:15.959Z,6.89
2023-04-12T08:21:20.074Z,6.64
2023-04-12T08:24:24.691Z,6.31
2023-04-12T08:27:31.466Z,5.73
2023-04-12T08:30:36.669Z,6.23
2023-04-12T08:33:41.382Z,6.10
2023-04-12T08:36:46.122Z,6.06
2023-04-12T08:39:51.770Z,5.48
2023-04-12T08:42:57.551Z,5.95
2023-04-12T08:46:07.021Z,5.84
2023-04-12T08:49:12.508Z,5.89
2023-04-12T08:52:16.472Z,5.52
2023-04-12T08:55:21.293Z,5.83
2023-04-12T08:58:26.702Z,5.47
2023-04-12T09:01:31.270Z,5.49
2023-04-12T09:04:35.868Z,5.16
2023-04-12T09:07:41.061Z,5.42
2023-04-12T09:10:45.445Z,5.67
2023-04-12T09:13:50.756Z,5.41
2023-04-12T09:16:55.261Z,5.26
2023-04-12T09:20:00.247Z,4.98
2023-04-12T09:23:25.578Z,5.22
2023-04-12T09:26:30.541Z,4.91
2023-04-12T09:29:35.477Z,4.69
2023-04-12T09:32:40.681Z,4.72
2023-04-12T09:35:45.137Z,4.71
2023-04-12T09:39:10.305Z,4.93
2023-04-12T09:42:31.651Z,4.77
2023-04-12T09:45:39.757Z,4.58
2023-04-12T09:48:52.015Z,4.53
2023-04-12T09:51:58.893Z,4.33
2023-04-12T09:55:06.323Z,4.52
2023-04-12T09:58:12.714Z,4.17
2023-04-12T10:01:17.660Z,4.13
2023-04-12T10:04:22.474Z,4.04
2023-04-12T10:07:28.135Z,3.88
2023-04-12T10:10:34.095Z,4.07
2023-04-12T10:13:38.846Z,3.96
2023-04-12T10:16:44.756Z,3.96
2023-04-12T10:19:49.762Z,4.02
2023-04-12T10:22:55.077Z,3.97
2023-04-12T10:26:05.506Z,3.81
2023-04-12T10:29:35.368Z,4.14
2023-04-12T10:32:40.540Z,3.89
2023-04-12T10:36:09.460Z,4.13
2023-04-12T10:39:15.622Z,3.86
2023-04-12T10:42:26.119Z,3.98
2023-04-12T10:45:34.839Z,4.00
2023-04-12T10:49:00.164Z,4.24
2023-04-12T10:52:14.769Z,4.02
2023-04-12T10:55:39.259Z,3.76
2023-04-12T10:58:50.926Z,3.97
2023-04-12T11:02:16.691Z,3.88
2023-04-12T11:05:28.251Z,3.75
2023-04-12T11:08:42.094Z,3.65
2023-04-12T11:12:10.794Z,3.78
2023-04-12T11:15:15.717Z,3.56
2023-04-12T11:18:29.061Z,3.35
2023-04-12T11:21:35.070Z,3.52
2023-04-12T11:24:47.638Z,3.36
2023-04-12T11:27:53.716Z,3.43
2023-04-12T11:31:00.625Z,3.15
2023-04-12T11:34:05.172Z,3.60
2023-04-12T11:37:10.751Z,3.63
2023-04-12T11:40:16.194Z,3.81
2023-04-12T11:43:23.208Z,3.67
2023-04-12T11:46:29.464Z,3.66
2023-04-12T11:49:34.646Z,3.66
2023-04-12T11:52:40.101Z,3.39
2023-04-12T11:55:50.694Z,3.44
2023-04-12T11:58:55.289Z,3.68
2023-04-12T12:02:01.528Z,3.49
2023-04-12T12:05:08.780Z,3.51
2023-04-12T12:08:14.351Z,3.64
2023-04-12T12:11:24.174Z,3.74
2023-04-12T12:14:28.735Z,3.65
2023-04-12T12:17:41.120Z,3.70
2023-04-12T12:20:52.781Z,3.62
2023-04-12T12:23:58.546Z,3.41
2023-04-12T12:27:04.415Z,3.53
2023-04-12T12:30:13.264Z,3.33
2023-04-12T12:33:26.841Z,3.47
2023-04-12T12:36:39.544Z,3.39
2023-04-12T12:40:25.123Z,3.58
2023-04-12T12:43:30.257Z,3.78
2023-04-12T12:46:50.818Z,3.81
2023-04-12T12:49:56.944Z,3.64
2023-04-12T12:53:02.830Z,3.53
2023-04-12T12:56:07.515Z,3.51
2023-04-12T12:59:12.005Z,3.59
2023-04-12T13:02:20.757Z,3.68
2023-04-12T13:05:25.361Z,3.62
2023-04-12T13:08:36.185Z,3.65
2023-04-12T13:11:40.756Z,3.50
2023-04-12T13:14:45.770Z,3.72
2023-04-12T13:17:50.356Z,3.30
2023-04-12T13:20:54.407Z,3.44
2023-04-12T13:23:58.631Z,3.52
2023-04-12T13:27:04.446Z,3.50
2023-04-12T13:30:09.602Z,3.48
2023-04-12T13:33:18.390Z,3.39
2023-04-12T13:36:27.567Z,3.42
2023-04-12T13:39:33.496Z,3.46
2023-04-12T13:42:38.077Z,3.42
2023-04-12T13:45:42.975Z,3.35
2023-04-12T13:48:48.111Z,3.46
2023-04-12T13:51:52.464Z,3.52
2023-04-12T13:54:56.345Z,3.22
2023-04-12T13:58:00.850Z,3.18
2023-04-12T14:01:06.555Z,3.15
2023-04-12T14:04:11.217Z,3.13
2023-04-12T14:07:15.865Z,3.17
2023-04-12T14:10:20.196Z,3.13
2023-04-12T14:13:25.410Z,3.26
2023-04-12T14:16:29.940Z,2.99
2023-04-12T14:19:34.060Z,3.08
2023-04-12T14:22:38.553Z,3.10
2023-04-12T14:25:43.498Z,3.27
2023-04-12T14:28:50.858Z,3.23
2023-04-12T14:31:55.299Z,3.19
2023-04-12T14:34:59.351Z,3.29
2023-04-12T14:38:03.545Z,3.10
2023-04-12T14:41:10.678Z,3.00
2023-04-12T14:44:14.579Z,3.11
2023-04-12T14:47:19.079Z,3.29
2023-04-12T14:50:23.873Z,3.17
2023-04-12T14:53:28.042Z,3.04
2023-04-12T14:56:34.889Z,2.86
2023-04-12T14:59:43.331Z,2.78
2023-04-12T15:02:49.902Z,2.80
2023-04-12T15:05:54.766Z,2.75
2023-04-12T15:09:00.682Z,2.60
2023-04-12T15:12:05.441Z,2.68
2023-04-12T15:15:10.585Z,2.57
2023-04-12T15:18:15.345Z,2.80
2023-04-12T15:21:19.493Z,2.74
2023-04-12T15:24:24.413Z,2.99
2023-04-12T15:27:28.986Z,2.77
2023-04-12T15:30:33.329Z,2.77
2023-04-12T15:33:37.972Z,2.49
2023-04-12T15:36:44.636Z,2.69
2023-04-12T15:39:49.377Z,2.64
2023-04-12T15:42:53.380Z,2.60
2023-04-12T15:45:57.494Z,2.37
2023-04-12T15:49:02.368Z,2.35
2023-04-12T15:52:06.999Z,2.05
2023-04-12T15:55:12.519Z,2.38
2023-04-12T15:58:16.653Z,2.30
2023-04-12T16:01:21.389Z,2.10
2023-04-12T16:04:27.896Z,2.36
2023-04-12T16:07:34.798Z,2.37
2023-04-12T16:10:40.247Z,2.18
2023-04-12T16:13:46.373Z,2.03
2023-04-12T16:16:50.977Z,1.95
2023-04-12T16:19:55.432Z,1.81
2023-04-12T16:23:00.249Z,2.12
2023-04-12T16:26:04.927Z,2.12
2023-04-12T16:29:09.585Z,2.05
2023-04-12T16:32:14.310Z,2.16
2023-04-12T16:35:18.496Z,2.20
2023-04-12T16:38:23.080Z,2.16
2023-04-12T16:41:27.208Z,1.93
2023-04-12T16:44:31.754Z,1.86
2023-04-12T16:47:40.708Z,2.06
2023-04-12T16:50:47.072Z,2.24
2023-04-12T16:53:51.716Z,1.88
2023-04-12T16:56:57.314Z,2.02
2023-04-12T17:00:02.109Z,2.29
2023-04-12T17:03:12.338Z,1.90
2023-04-12T17:06:17.979Z,1.87
2023-04-12T17:09:22.440Z,1.85
2023-04-12T17:12:26.770Z,1.82
2023-04-12T17:15:31.349Z,1.69
2023-04-12T17:18:37.733Z,1.49
2023-04-12T17:21:42.787Z,1.62
2023-04-12T17:24:47.252Z,1.60
2023-04-12T17:27:51.991Z,1.64
2023-04-12T17:30:59.023Z,1.58
2023-04-12T17:34:04.665Z,1.56
2023-04-12T17:37:09.369Z,1.55
2023-04-12T17:40:14.837Z,1.52
2023-04-12T17:43:19.117Z,1.50
2023-04-12T17:46:25.037Z,1.43
2023-04-12T17:49:29.593Z,1.56
2023-04-12T17:52:34.078Z,1.35
2023-04-12T17:55:39.546Z,1.42
2023-04-12T17:58:44.760Z,1.35
2023-04-12T18:01:49.355Z,1.17
2023-04-12T18:04:53.546Z,1.44
2023-04-12T18:07:58.096Z,1.43
2023-04-12T18:11:03.099Z,1.43
2023-04-12T18:14:08.212Z,1.48
2023-04-12T18:17:12.989Z,1.42
2023-04-12T18:20:17.967Z,1.35
2023-04-12T18:23:22.345Z,1.38
2023-04-12T18:26:27.282Z,1.48
2023-04-12T18:29:31.828Z,1.46
2023-04-12T18:32:36.086Z,1.47
2023-04-12T18:35:40.980Z,1.61
2023-04-12T18:38:45.686Z,1.44
2023-04-12T18:41:49.556Z,1.51
2023-04-12T18:44:54.185Z,1.36
2023-04-12T18:47:59.298Z,1.57
2023-04-12T18:51:03.644Z,1.65
2023-04-12T18:54:19.889Z,0.21
2023-04-12T18:57:24.589Z,1.53
2023-04-12T19:00:29.347Z,1.51
2023-04-12T19:03:34.778Z,1.75
2023-04-12T19:06:39.886Z,1.59
2023-04-12T19:09:44.465Z,1.66
2023-04-12T19:12:48.821Z,1.79
2023-04-12T19:15:56.553Z,1.91
2023-04-12T19:19:01.089Z,1.86
2023-04-12T19:22:05.694Z,2.10
2023-04-12T19:25:10.555Z,2.11
2023-04-12T19:28:16.478Z,2.16
2023-04-12T19:31:20.908Z,1.93
2023-04-12T19:34:25.477Z,1.86
2023-04-12T19:37:36.397Z,2.06
2023-04-12T19:40:40.802Z,1.81
2023-04-12T19:43:45.484Z,1.88
2023-04-12T19:46:50.387Z,1.86
2023-04-12T19:49:56.799Z,1.78
2023-04-12T19:53:01.606Z,1.88
2023-04-12T19:56:06.532Z,1.81
2023-04-12T19:59:11.470Z,1.76
2023-04-12T20:02:16.188Z,1.74
2023-04-12T20:05:27.617Z,1.85
2023-04-12T20:08:32.094Z,1.55
2023-04-12T20:11:36.601Z,1.78
2023-04-12T20:14:41.337Z,1.62
2023-04-12T20:17:46.654Z,1.47
2023-04-12T20:20:51.858Z,1.64
2023-04-12T20:23:56.295Z,1.38
2023-04-12T20:27:00.832Z,1.67
2023-04-12T20:30:09.580Z,1.57
2023-04-12T20:33:14.076Z,1.29
2023-04-12T20:36:18.189Z,1.51
2023-04-12T20:39:24.889Z,1.77
2023-04-12T20:42:29.431Z,1.59
2023-04-12T20:45:35.602Z,1.56
2023-04-12T20:48:40.157Z,1.63
2023-04-12T20:51:47.544Z,1.75
2023-04-12T20:54:54.072Z,1.63
2023-04-12T20:57:57.853Z,1.66
2023-04-12T21:01:08.501Z,1.96
2023-04-12T21:07:34.731Z,2.35
2023-04-12T21:10:38.914Z,2.02
2023-04-12T21:13:43.136Z,2.26
2023-04-12T21:16:49.689Z,2.35
2023-04-12T21:19:54.137Z,2.43
2023-04-12T21:22:58.534Z,2.59
2023-04-12T21:26:03.410Z,2.68
2023-04-12T21:29:07.383Z,2.72
2023-04-12T21:32:11.620Z,2.84
2023-04-12T21:35:17.048Z,2.81
2023-04-12T21:38:22.191Z,2.80
2023-04-12T21:41:26.728Z,2.63
2023-04-12T21:44:32.299Z,2.84
2023-04-12T21:47:37.668Z,2.82
2023-04-12T21:50:42.780Z,3.53
2023-04-12T21:53:47.963Z,3.40
2023-04-12T21:56:52.724Z,3.11
2023-04-12T21:59:57.351Z,3.48
2023-04-12T22:03:02.518Z,3.16
2023-04-12T22:06:07.958Z,3.23
2023-04-12T22:09:12.708Z,3.41
2023-04-12T22:12:18.791Z,4.00
2023-04-12T22:15:23.170Z,4.70
2023-04-12T22:18:28.130Z,5.61
2023-04-12T22:21:34.229Z,6.80
2023-04-12T22:24:39.510Z,6.85
2023-04-12T22:27:47.114Z,7.09
2023-04-12T22:30:52.402Z,7.54
2023-04-12T22:33:57.548Z,7.29
2023-04-12T22:37:04.400Z,6.99
2023-04-12T22:40:14.980Z,6.90
2023-04-12T22:43:19.038Z,5.98
2023-04-12T22:46:23.745Z,6.73
2023-04-12T22:49:29.337Z,7.01
2023-04-12T22:52:34.357Z,6.25
2023-04-12T22:55:40.352Z,6.02
2023-04-12T22:58:44.593Z,5.55
2023-04-12T23:01:48.615Z,6.01
2023-04-12T23:04:53.410Z,5.79
2023-04-12T23:07:58.002Z,6.19
2023-04-12T23:11:05.724Z,6.58
2023-04-12T23:14:11.084Z,6.72
2023-04-12T23:17:17.735Z,6.44
2023-04-12T23:20:22.612Z,6.60
2023-04-12T23:23:27.197Z,6.17
2023-04-12T23:26:31.801Z,6.35
2023-04-12T23:29:38.603Z,7.05
2023-04-12T23:32:43.068Z,7.76
2023-04-12T23:35:53.354Z,7.74
2023-04-12T23:39:00.945Z,7.53
2023-04-12T23:42:05.458Z,8.30
2023-04-12T23:45:11.667Z,8.49
2023-04-12T23:48:17.296Z,8.02
2023-04-12T23:51:22.978Z,7.86
2023-04-12T23:54:28.024Z,8.23
2023-04-12T23:57:32.487Z,8.66
